Latest Weather Observations for Viewbank

IDV60801

Issued at 9:42 am EDT Thursday 23 January 2020 (issued every 10 minutes, with the page automatically refreshed every 10 minutes)

About weather observations | Map of weather stations | Latest weather observations for VIC | Other Formats
Station Details ID: 086068 Name: VIEWBANK Lat: -37.74 Lon: 145.10 Height: 66.1 m
Data from the previous 72 hours. | See also: Recent months at Viewbank
Date/Time
EDT
Temp
°C
App
Temp
°C
Dew
Point
°C
Rel
Hum
%
Delta-T
°C
Wind Press
QNH
hPa
Press
MSL
hPa
Rain since
9am
mm
Dir  Spd
km/h
Gust
km/h
Spd
kts
Gust
kts
23/09:30am 14.8 15.1 14.6 99 0.1 WNW 6 13 3 7 997.7 997.4 0.0
23/09:00am 14.8 14.1 14.3 97 0.3 NNW 11 17 6 9 997.2 996.9 19.6
23/08:30am 13.9 14.8 13.9 100 0.0 ENE 2 7 1 4 997.3 997.0 19.4
23/08:00am 13.7 14.9 13.7 100 0.0 CALM 0 0 0 0 997.1 996.8 18.6
23/07:30am 13.5 14.2 13.5 100 0.0 ENE 2 6 1 3 996.3 996.1 18.4
23/07:00am 13.4 14.1 13.4 100 0.0 ENE 2 7 1 4 996.6 996.3 18.2
23/06:30am 13.2 13.1 13.2 100 0.0 ENE 6 13 3 7 996.1 995.9 18.0
23/06:00am 13.1 12.4 13.1 100 0.0 E 9 15 5 8 996.4 996.2 17.2
23/05:30am 12.8 11.6 12.8 100 0.0 E 11 17 6 9 997.0 996.7 16.6
23/05:00am 12.8 13.7 12.8 100 0.0 CALM 0 0 0 0 997.7 997.4 16.2
23/04:30am 12.9 12.7 12.9 100 0.0 WSW 6 11 3 6 998.2 997.9 14.4
23/04:00am 13.0 11.9 13.0 100 0.0 W 11 17 6 9 997.7 997.4 13.4
23/03:30am 13.2 11.4 13.2 100 0.0 WSW 15 22 8 12 998.0 997.7 13.0
23/03:00am 13.9 13.1 13.9 100 0.0 SW 11 19 6 10 997.5 997.2 12.8
23/02:30am 14.1 12.6 14.1 100 0.0 SW 15 24 8 13 998.0 997.7 12.2
23/02:00am 14.7 14.5 14.7 100 0.0 SW 9 17 5 9 998.9 998.6 12.0
23/01:30am 15.4 15.1 15.4 100 0.0 SW 11 17 6 9 998.8 998.5 10.4
23/01:00am 15.5 15.2 15.5 100 0.0 SW 11 20 6 11 999.7 999.4 9.0
23/12:30am 15.6 16.1 15.6 100 0.0 SSW 7 11 4 6 999.7 999.4 5.8
23/12:00am 15.9 16.5 15.9 100 0.0 SSE 7 13 4 7 999.7 999.4 4.0
 
Date/Time
EDT
Temp
°C
App
Temp
°C
Dew
Point
°C
Rel
Hum
%
Delta-T
°C
Wind Press
QNH
hPa
Press
MSL
hPa
Rain since
9am
mm
Dir  Spd
km/h
Gust
km/h
Spd
kts
Gust
kts
22/11:30pm 16.2 17.1 16.2 100 0.0 SSE 6 9 3 5 1000.6 1000.3 3.0
22/11:00pm 16.4 16.1 16.4 100 0.0 SW 13 20 7 11 1002.0 1001.7 0.4
22/10:30pm 17.0 16.8 16.8 99 0.1 SSW 13 26 7 14 1000.1 999.8 0.0
22/10:00pm 17.8 17.6 16.8 94 0.6 SSW 13 20 7 11 999.5 999.2 0.0
22/09:30pm 17.9 17.1 17.1 95 0.5 SSW 17 28 9 15 999.2 998.9 0.0
22/09:00pm 17.9 16.5 16.9 94 0.6 SW 20 35 11 19 998.0 997.7 0.0
22/08:30pm 18.2 13.7 16.5 90 1.0 SW 35 54 19 29 998.1 997.8 0.0
22/08:29pm 18.4 13.9 16.4 88 1.2 SW 35 54 19 29 998.1 997.8 0.0
22/08:12pm 23.4 18.2 12.7 51 6.1 WNW 32 63 17 34 997.1 996.8 0.0
22/08:09pm 25.9 21.8 11.6 40 8.2 NNW 24 63 13 34 996.1 995.9 0.0
22/08:00pm 28.6 25.4 9.8 31 10.6 NNE 17 28 9 15 994.8 994.6 0.0
22/07:30pm 28.8 25.1 10.0 31 10.6 NNE 20 43 11 23 995.1 994.9 0.0
22/07:01pm 29.0 23.7 9.7 30 10.8 NNE 28 46 15 25 995.7 995.5 0.0
22/07:00pm 29.0 24.0 9.7 30 10.9 NNE 26 46 14 25 995.8 995.6 0.0
22/06:35pm 29.7 24.2 9.3 28 11.4 N 28 48 15 26 996.2 996.0 0.0
22/06:30pm 30.0 25.0 9.5 28 11.5 N 26 48 14 26 996.4 996.2 0.0
22/06:00pm 30.1 24.1 8.5 26 12.0 NNW 30 56 16 30 996.6 996.3 0.0
22/05:38pm 30.5 24.9 8.8 26 12.1 N 28 54 15 29 996.6 996.3 0.0
22/05:30pm 30.3 25.8 8.7 26 12.0 N 22 46 12 25 996.7 996.4 0.0
22/05:00pm 29.6 25.6 9.2 28 11.5 NNE 20 39 11 21 996.4 996.2 0.0
22/04:30pm 29.7 25.0 9.3 28 11.4 NNE 24 41 13 22 997.3 997.0 0.0
22/04:00pm 30.5 24.2 8.8 26 12.2 N 32 54 17 29 997.8 997.5 0.0
22/03:32pm 31.4 25.5 9.0 25 12.6 N 30 52 16 28 998.4 998.1 0.0
22/03:30pm 31.3 25.9 9.5 26 12.3 N 28 48 15 26 998.5 998.2 0.0
22/03:06pm 31.2 26.1 10.5 28 11.9 NNE 28 46 15 25 998.5 998.2 0.0
22/03:00pm 31.1 26.9 11.0 29 11.7 NNE 24 46 13 25 998.7 998.4 0.0
22/02:30pm 31.3 26.9 11.7 30 11.5 NNE 26 63 14 34 998.9 998.6 0.0
22/02:00pm 31.0 25.7 11.4 30 11.5 N 30 50 16 27 999.6 999.3 0.0
22/01:30pm 29.3 24.1 10.4 31 10.7 NNE 28 61 15 33 1000.1 999.8 0.0
22/01:00pm 28.9 23.0 10.6 32 10.5 N 32 57 17 31 1000.6 1000.3 0.0
22/12:35pm 28.7 24.4 10.8 33 10.2 NNE 24 63 13 34 1000.7 1000.4 0.0
22/12:30pm 28.9 25.7 11.9 35 9.9 NE 20 41 11 22 1000.7 1000.4 0.0
22/12:00pm 28.6 24.3 12.1 36 9.7 NE 26 50 14 27 1001.1 1000.8 0.0
22/11:50am 28.1 23.2 11.2 35 9.7 NE 28 56 15 30 1001.2 1000.9 0.0
22/11:30am 28.3 24.3 11.8 36 9.6 NE 24 54 13 29 1001.3 1001.0 0.0
22/11:00am 26.9 23.5 12.5 40 8.4 NE 22 44 12 24 1001.7 1001.4 0.0
22/10:30am 25.7 23.9 12.2 43 7.8 E 13 30 7 16 1002.3 1002.0 0.0
22/10:00am 24.1 22.2 13.0 50 6.5 E 15 24 8 13 1002.7 1002.4 0.0
22/09:30am 23.1 20.3 12.7 52 6.0 E 19 33 10 18 1002.9 1002.6 0.0
22/09:00am 23.1 20.5 12.1 50 6.3 NE 17 30 9 16 1003.2 1002.9 0.0
22/08:30am 23.1 20.3 11.5 48 6.5 NE 17 35 9 19 1003.5 1003.2 0.0
22/08:00am 22.7 19.5 11.4 49 6.4 NNE 19 37 10 20 1003.5 1003.2 0.0
22/07:30am 20.6 19.3 11.2 55 5.2 SSE 9 20 5 11 1003.9 1003.7 0.0
22/07:00am 16.8 16.1 10.2 65 3.5 SSE 4 7 2 4 1004.1 1003.9 0.0
22/06:30am 16.5 15.3 9.7 64 3.6 SE 6 9 3 5 1004.3 1004.1 0.0
22/06:00am 16.6 15.3 9.3 62 3.8 ESE 6 11 3 6 1004.5 1004.3 0.0
22/05:30am 16.0 14.9 10.1 68 3.1 ESE 6 9 3 5 1004.5 1004.3 0.0
22/05:00am 13.7 13.8 12.8 94 0.5 ESE 4 6 2 3 1004.6 1004.4 0.0
22/04:30am 13.0 13.9 12.8 99 0.1 CALM 0 6 0 3 1004.6 1004.4 0.0
22/04:00am 13.3 13.5 13.1 99 0.1 SE 4 6 2 3 1004.9 1004.7 0.0
22/03:30am 12.8 12.0 12.8 100 0.0 SE 9 9 5 5 1005.2 1005.0 0.0
22/03:00am 13.1 14.1 13.1 100 0.0 CALM 0 0 0 0 1005.5 1005.3 0.0
22/02:30am 13.0 12.8 13.0 100 0.0 SE 6 9 3 5 1005.7 1005.5 0.0
22/02:00am 13.0 13.1 12.8 99 0.1 SE 4 7 2 4 1005.9 1005.7 0.0
22/01:30am 14.0 15.2 13.8 99 0.1 CALM 0 0 0 0 1006.5 1006.3 0.0
22/01:00am 14.2 15.3 13.6 96 0.3 CALM 0 0 0 0 1006.5 1006.3 0.0
22/12:30am 14.5 15.4 13.0 91 0.8 CALM 0 0 0 0 1007.0 1006.8 0.0
22/12:00am 14.8 15.5 12.1 84 1.5 CALM 0 0 0 0 1007.2 1007.0 0.0
 
Date/Time
EDT
Temp
°C
App
Temp
°C
Dew
Point
°C
Rel
Hum
%
Delta-T
°C
Wind Press
QNH
hPa
Press
MSL
hPa
Rain since
9am
mm
Dir  Spd
km/h
Gust
km/h
Spd
kts
Gust
kts
21/11:30pm 15.1 15.7 11.9 81 1.7 CALM 0 0 0 0 1007.6 1007.4 0.0
21/11:00pm 15.3 15.8 11.7 79 2.0 CALM 0 0 0 0 1007.9 1007.7 0.0
21/10:30pm 15.7 15.0 11.5 76 2.3 SSE 6 7 3 4 1008.0 1007.8 0.0
21/10:00pm 16.1 16.1 11.3 73 2.6 SSE 2 7 1 4 1007.8 1007.6 0.0
21/09:30pm 16.9 16.1 11.2 69 3.1 SSE 6 11 3 6 1007.6 1007.4 0.0
21/09:00pm 17.6 16.3 11.2 66 3.5 S 9 17 5 9 1007.6 1007.4 0.0
21/08:30pm 18.9 18.0 11.2 61 4.2 SSW 7 13 4 7 1007.3 1007.1 0.0
21/08:00pm 20.0 18.1 11.8 59 4.6 WSW 13 20 7 11 1007.1 1006.9 0.0
21/07:30pm 21.6 19.0 10.7 50 6.0 SW 15 26 8 14 1006.8 1006.6 0.0
21/07:00pm 22.5 20.0 10.9 48 6.4 SW 15 24 8 13 1006.6 1006.4 0.0
21/06:30pm 23.2 20.7 10.9 46 6.8 SSW 15 22 8 12 1006.5 1006.3 0.0
21/06:00pm 23.6 20.7 11.0 45 7.1 SW 17 30 9 16 1006.4 1006.2 0.0
21/05:30pm 24.1 21.6 11.1 44 7.3 SW 15 24 8 13 1006.5 1006.3 0.0
21/05:00pm 24.8 23.3 10.7 41 7.9 SSW 9 15 5 8 1006.6 1006.4 0.0
21/04:30pm 23.8 22.7 10.5 43 7.4 SE 7 11 4 6 1006.8 1006.6 0.0
21/04:00pm 23.9 23.2 11.9 47 6.8 SSE 7 13 4 7 1007.3 1007.1 0.0
21/03:30pm 23.4 20.7 9.0 40 7.8 SW 13 20 7 11 1007.8 1007.6 0.0
21/03:00pm 23.2 22.3 10.6 45 7.0 SW 6 13 3 7 1008.0 1007.8 0.0
21/02:30pm 22.8 21.9 11.2 48 6.5 N 7 15 4 8 1008.5 1008.3 0.0
21/02:00pm 21.7 20.0 9.9 47 6.4 WNW 9 19 5 10 1008.9 1008.7 0.0
21/01:30pm 21.3 19.8 10.5 50 5.9 WNW 9 13 5 7 1009.2 1009.0 0.0
21/01:00pm 20.1 18.4 8.4 47 6.1 NW 7 15 4 8 1009.8 1009.6 0.0
21/12:30pm 19.7 18.3 9.6 52 5.4 W 7 11 4 6 1010.2 1010.0 0.0
21/12:00pm 18.7 17.1 8.9 53 5.1 NW 7 13 4 7 1010.4 1010.2 0.0
21/11:30am 18.5 17.2 10.1 58 4.5 WNW 7 15 4 8 1010.6 1010.4 0.0
21/11:00am 18.0 16.1 10.4 61 4.1 W 11 17 6 9 1010.9 1010.7 0.0
21/10:30am 16.6 14.3 9.1 61 3.9 WNW 11 19 6 10 1011.0 1010.8 0.0
21/10:00am 16.9 15.1 10.7 67 3.3 WNW 11 22 6 12 1011.0 1010.8 0.0
21/09:30am 16.6 15.4 11.7 73 2.7 W 9 19 5 10 1010.9 1010.7 0.0
21/09:00am 15.4 14.2 11.6 78 2.1 WNW 9 15 5 8 1010.8 1010.6 17.0
21/08:30am 14.8 13.8 12.3 85 1.4 WNW 9 15 5 8 1010.5 1010.3 17.0
21/08:00am 14.3 13.5 12.9 91 0.8 WNW 9 15 5 8 1010.1 1009.9 17.0
21/07:30am 13.9 12.2 12.5 91 0.8 WNW 13 20 7 11 1009.8 1009.6 17.0
21/07:00am 13.8 12.6 12.9 94 0.5 WNW 11 19 6 10 1009.4 1009.2 17.0
21/06:30am 13.9 12.5 13.4 97 0.3 WNW 13 19 7 10 1009.1 1008.9 17.0
21/06:00am 14.0 12.9 13.2 95 0.4 WNW 11 19 6 10 1008.9 1008.7 17.0
21/05:30am 13.9 13.3 13.6 98 0.2 WNW 9 13 5 7 1008.5 1008.3 17.0
21/05:00am 13.8 13.2 13.6 99 0.1 WNW 9 15 5 8 1008.3 1008.1 17.0
21/04:30am 13.9 13.0 13.7 99 0.1 WNW 11 17 6 9 1008.0 1007.8 17.0
21/04:00am 13.9 12.7 13.9 100 0.0 WNW 13 19 7 10 1007.7 1007.5 17.0
21/03:30am 13.9 13.1 13.9 100 0.0 WNW 11 17 6 9 1007.6 1007.4 17.0
21/03:00am 14.0 13.6 14.0 100 0.0 WNW 9 15 5 8 1007.8 1007.6 17.0
21/02:30am 14.2 14.2 14.2 100 0.0 WNW 7 11 4 6 1007.8 1007.6 17.0
21/02:00am 14.2 13.1 14.2 100 0.0 W 13 22 7 12 1007.9 1007.7 17.0
21/01:30am 14.1 12.9 14.1 100 0.0 WSW 13 20 7 11 1008.0 1007.8 17.0
21/01:00am 14.1 12.2 14.1 100 0.0 W 17 28 9 15 1008.1 1007.9 16.8
21/12:30am 14.5 13.5 14.5 100 0.0 W 13 24 7 13 1008.2 1008.0 16.8
21/12:00am 14.8 13.9 14.8 100 0.0 SW 13 20 7 11 1008.0 1007.8 16.4
 
Date/Time
EDT
Temp
°C
App
Temp
°C
Dew
Point
°C
Rel
Hum
%
Delta-T
°C
Wind Press
QNH
hPa
Press
MSL
hPa
Rain since
9am
mm
Dir  Spd
km/h
Gust
km/h
Spd
kts
Gust
kts
20/11:30pm 15.1 13.9 15.1 100 0.0 SW 15 24 8 13 1007.9 1007.7 16.2
20/11:00pm 15.5 14.8 15.5 100 0.0 WSW 13 24 7 13 1007.7 1007.5 15.4
20/10:30pm 15.5 14.5 15.5 100 0.0 SW 15 20 8 11 1007.5 1007.3 14.2
20/10:00pm 15.7 14.4 15.7 100 0.0 SW 17 28 9 15 1007.3 1007.1 14.0
20/09:30pm 15.8 14.9 15.8 100 0.0 SW 15 24 8 13 1006.7 1006.5 13.0
20/09:00pm 15.8 15.3 15.8 100 0.0 SW 13 20 7 11 1006.5 1006.3 12.2
20/08:30pm 15.9 15.0 15.9 100 0.0 SW 15 22 8 12 1006.0 1005.8 10.0
20/08:00pm 15.8 14.9 15.8 100 0.0 SW 15 22 8 12 1005.6 1005.4 8.2
20/07:30pm 16.0 15.5 16.0 100 0.0 SW 13 20 7 11 1005.1 1004.9 6.6
20/07:00pm 16.1 14.9 16.1 100 0.0 SW 17 24 9 13 1004.9 1004.7 5.8
20/06:30pm 16.2 15.0 16.2 100 0.0 SW 17 26 9 14 1004.4 1004.2 5.6
20/06:00pm 16.5 15.5 16.5 100 0.0 SW 17 28 9 15 1004.0 1003.8 4.4
20/05:30pm 17.3 16.0 17.3 100 0.0 SSW 20 32 11 17 1003.7 1003.4 3.6
20/05:00pm 17.3 16.2 17.3 100 0.0 SW 19 28 10 15 1003.3 1003.0 3.6
20/04:30pm 17.4 16.3 17.4 100 0.0 SSW 19 32 10 17 1003.3 1003.0 2.4
20/04:00pm 18.7 18.1 16.7 88 1.2 S 15 28 8 15 1003.2 1002.9 0.0
20/03:30pm 19.0 17.6 17.0 88 1.2 SW 20 33 11 18 1003.0 1002.7 0.0
20/03:00pm 19.9 18.6 17.3 85 1.6 SSW 20 33 11 18 1002.9 1002.6 0.0
20/02:30pm 20.9 19.8 17.7 82 2.0 SSW 20 35 11 19 1002.7 1002.4 0.0
20/02:00pm 22.1 21.3 18.5 80 2.3 SW 20 35 11 19 1002.9 1002.6 0.0
20/01:30pm 22.2 21.4 18.4 79 2.4 SW 20 30 11 16 1002.8 1002.5 0.0
20/01:00pm 20.9 20.7 18.5 86 1.5 SW 17 26 9 14 1003.3 1003.0 0.0
20/12:30pm 23.0 22.5 18.7 77 2.7 WSW 19 30 10 16 1003.1 1002.8 0.0
20/12:00pm 23.0 22.9 17.9 73 3.2 SW 15 26 8 14 1003.7 1003.4 0.0
20/11:30am 22.2 22.6 17.3 74 3.0 WSW 11 17 6 9 1004.0 1003.8 0.0
20/11:00am 21.6 22.7 18.0 80 2.2 WSW 9 15 5 8 1004.1 1003.9 0.0
20/10:30am 20.9 23.7 19.7 93 0.8 SSE 4 7 2 4 1004.1 1003.9 0.0
20/10:00am 20.0 23.0 19.2 95 0.5 SSE 2 6 1 3 1004.0 1003.8 0.0

Other formats

Comma delimited format used in spreadsheet applications
http://www.bom.gov.au/fwo/IDV60801/IDV60801.95874.axf

JavaScript Object Notation format (JSON) in row-major order
http://www.bom.gov.au/fwo/IDV60801/IDV60801.95874.json

Data quality

Most of these data are generated automatically and are frequently updated. Quality checks on data are not normally performed. It is possible for incorrect values to appear. Refer to information at About Latest Weather Observations and please check the disclaimer before using these data.